Time;durP1;ratioP1;P1;durP2;ratioP2;P2;SDS_P1;SDS_P2;PMS_P1;PMS_P2;Temp;Humidity;BMP_temperature;BMP_pressure;BME280_temperature;BME280_humidity;BME280_pressure;Samples;Min_cycle;Max_cycle;Signal;HPM_P1;HPM_P2
2022/08/03 00:01:30;;;;;;;;;;;;;;;23.07;100.00;98411.00;5059093;28;19932;-86
2022/08/03 00:03:57;;;;;;;;;;;;;;;23.04;100.00;98414.91;5059251;28;19982;-86
2022/08/03 00:06:24;;;;;;;;;;;;;;;22.87;100.00;98407.72;5059373;28;19925;-86
2022/08/03 00:08:51;;;;;;;;;;;;;;;23.11;100.00;98410.75;5059273;28;20263;-86
2022/08/03 00:11:18;;;;;;;;;;;;;;;22.75;100.00;98406.94;5076129;28;20291;-86
2022/08/03 00:13:46;;;;;;;;;;;;;;;22.66;100.00;98415.00;5074746;28;19924;-86
2022/08/03 00:16:14;;;;;;;;;;;;;;;22.86;100.00;98409.78;5076124;28;20384;-86
2022/08/03 00:18:41;;;;;;;;;;;;;;;22.82;100.00;98400.75;5075522;28;19940;-86
2022/08/03 00:21:08;;;;;;;;;;;;;;;22.89;100.00;98405.88;5075551;28;19924;-85
2022/08/03 00:23:35;;;;;;;;;;;;;;;22.76;100.00;98402.03;5058606;28;19924;-86
2022/08/03 00:26:02;;;;;;;;;;;;;;;23.27;100.00;98397.72;5058769;28;19930;-86
2022/08/03 00:28:29;;;;;;;;;;;;;;;22.78;100.00;98400.22;5075234;28;19935;-86
2022/08/03 00:30:57;;;;;;;;;;;;;;;23.20;100.00;98403.97;5058890;28;19931;-87
2022/08/03 00:33:24;;;;;;;;;;;;;;;23.13;100.00;98393.13;5058637;28;20287;-86
2022/08/03 00:35:51;;;;;;;;;;;;;;;22.99;100.00;98395.75;5058863;28;19930;-86
2022/08/03 00:38:18;;;;;;;;;;;;;;;22.66;100.00;98393.00;5042331;28;19998;-86
2022/08/03 00:40:45;;;;;;;;;;;;;;;23.18;100.00;98393.09;5075477;28;19924;-86
2022/08/03 00:43:12;;;;;;;;;;;;;;;23.36;100.00;98398.22;5074629;28;20027;-87
2022/08/03 00:45:40;;;;;;;;;;;;;;;23.22;100.00;98387.88;5075153;28;19929;-86
2022/08/03 00:48:08;;;;;;;;;;;;;;;23.07;100.00;98379.66;5075473;28;19925;-86
2022/08/03 00:50:38;;;;;;;;;;;;;;;23.12;100.00;98383.78;5076319;28;19990;-86
2022/08/03 00:53:06;;;;;;;;;;;;;;;23.24;100.00;98373.91;5074935;28;19931;-86
2022/08/03 00:55:35;;;;;;;;;;;;;;;22.98;100.00;98368.56;5074810;28;20351;-86
2022/08/03 00:58:06;;;;;;;;;;;;;;;23.13;100.00;98376.03;5076354;28;19925;-87
2022/08/03 01:00:37;;;;;;;;;;;;;;;23.34;100.00;98365.84;5058289;28;20272;-86
2022/08/03 01:03:06;;;;;;;;;;;;;;;23.35;100.00;98368.16;5074768;28;20078;-86
2022/08/03 01:05:48;;;;;;;;;;;;;;;23.16;100.00;98369.28;5074747;28;20295;-86
2022/08/03 01:08:24;;;;;;;;;;;;;;;22.86;100.00;98361.34;5075153;28;20397;-86
2022/08/03 01:11:05;;;;;;;;;;;;;;;23.20;100.00;98367.69;5057622;28;20330;-86
2022/08/03 01:13:48;;;;;;;;;;;;;;;23.05;100.00;98370.84;5075507;28;19967;-86
2022/08/03 01:16:18;;;;;;;;;;;;;;;22.88;100.00;98375.09;5074688;28;19956;-86
2022/08/03 01:18:57;;;;;;;;;;;;;;;22.98;100.00;98359.22;5058415;28;20288;-86
2022/08/03 01:21:38;;;;;;;;;;;;;;;23.09;100.00;98350.66;5058235;28;19924;-86
2022/08/03 01:24:05;;;;;;;;;;;;;;;22.95;100.00;98355.38;5057928;28;19924;-86
2022/08/03 01:26:32;;;;;;;;;;;;;;;22.67;100.00;98354.69;5075431;28;20279;-86
2022/08/03 01:29:11;;;;;;;;;;;;;;;22.62;100.00;98369.72;5074243;28;19991;-86
2022/08/03 01:31:40;;;;;;;;;;;;;;;22.66;100.00;98350.28;5058004;28;19924;-85
2022/08/03 01:34:09;;;;;;;;;;;;;;;22.92;100.00;98352.78;5057552;28;20015;-85
2022/08/03 01:36:39;;;;;;;;;;;;;;;23.09;100.00;98351.44;5075116;28;19924;-85
2022/08/03 01:39:08;;;;;;;;;;;;;;;23.19;100.00;98360.44;5074021;28;19957;-85
2022/08/03 01:41:39;;;;;;;;;;;;;;;23.09;100.00;98368.53;5056129;28;19920;-85
2022/08/03 01:44:08;;;;;;;;;;;;;;;22.86;100.00;98367.06;5091084;28;19924;-85
2022/08/03 01:46:35;;;;;;;;;;;;;;;23.38;100.00;98357.78;5074337;28;19924;-85
2022/08/03 01:49:05;;;;;;;;;;;;;;;23.20;100.00;98366.91;5073941;28;20269;-85
2022/08/03 01:51:33;;;;;;;;;;;;;;;23.63;100.00;98342.34;5057411;28;19928;-85
2022/08/03 01:54:01;;;;;;;;;;;;;;;23.35;100.00;98355.97;5057254;28;20401;-85
2022/08/03 01:56:30;;;;;;;;;;;;;;;23.28;100.00;98345.16;5072869;28;20015;-85
2022/08/03 01:58:59;;;;;;;;;;;;;;;22.93;100.00;98343.72;5074930;28;20287;-85
2022/08/03 02:01:28;;;;;;;;;;;;;;;23.31;100.00;98341.25;5057584;28;19924;-85
2022/08/03 02:03:56;;;;;;;;;;;;;;;23.14;100.00;98339.22;5057049;28;19931;-85
2022/08/03 02:06:24;;;;;;;;;;;;;;;23.42;100.00;98344.00;5107407;28;19928;-85
2022/08/03 02:08:52;;;;;;;;;;;;;;;23.26;100.00;98342.03;5056711;28;19929;-85
2022/08/03 02:11:19;;;;;;;;;;;;;;;23.10;100.00;98344.41;5056679;28;20577;-85
2022/08/03 02:13:48;;;;;;;;;;;;;;;23.07;100.00;98333.28;5090104;28;19925;-85
2022/08/03 02:16:17;;;;;;;;;;;;;;;22.91;100.00;98346.34;5057260;28;19960;-85
2022/08/03 02:18:44;;;;;;;;;;;;;;;22.79;100.00;98338.34;5073384;28;19925;-85
2022/08/03 02:21:12;;;;;;;;;;;;;;;23.05;100.00;98344.47;5040307;28;20484;-85
2022/08/03 02:23:39;;;;;;;;;;;;;;;23.08;100.00;98335.63;5056537;28;20007;-85
2022/08/03 02:26:11;;;;;;;;;;;;;;;22.90;100.00;98344.75;5056488;28;20019;-85
2022/08/03 02:28:40;;;;;;;;;;;;;;;23.24;100.00;98350.31;5056753;28;19924;-85
2022/08/03 02:31:12;;;;;;;;;;;;;;;23.08;100.00;98349.88;5073227;28;19924;-85
2022/08/03 02:33:42;;;;;;;;;;;;;;;23.26;100.00;98350.59;5040239;28;19947;-85
2022/08/03 02:36:10;;;;;;;;;;;;;;;22.81;100.00;98370.69;5073416;28;19924;-85
2022/08/03 02:38:40;;;;;;;;;;;;;;;22.69;100.00;98352.09;5072983;28;19925;-85
2022/08/03 02:41:14;;;;;;;;;;;;;;;22.65;100.00;98357.28;5056532;28;19924;-85
2022/08/03 02:43:44;;;;;;;;;;;;;;;22.99;100.00;98350.16;5072953;28;20029;-85
2022/08/03 02:46:13;;;;;;;;;;;;;;;22.77;100.00;98344.56;5073291;28;19929;-85
2022/08/03 02:48:42;;;;;;;;;;;;;;;22.90;100.00;98344.75;5073232;28;19924;-85
2022/08/03 02:51:10;;;;;;;;;;;;;;;22.62;100.00;98344.09;5073045;28;20323;-86
2022/08/03 02:53:38;;;;;;;;;;;;;;;22.75;100.00;98350.00;5072672;28;19931;-85
2022/08/03 02:56:06;;;;;;;;;;;;;;;22.55;100.00;98330.38;5072843;28;19924;-85
2022/08/03 02:58:36;;;;;;;;;;;;;;;22.83;100.00;98342.47;5089388;28;19931;-85
2022/08/03 03:01:05;;;;;;;;;;;;;;;22.30;100.00;98347.75;5089699;28;19993;-85
2022/08/03 03:03:33;;;;;;;;;;;;;;;22.47;100.00;98357.03;5073045;28;20334;-85
2022/08/03 03:06:09;;;;;;;;;;;;;;;22.68;100.00;98355.47;5074458;28;19931;-85
2022/08/03 03:08:40;;;;;;;;;;;;;;;22.48;100.00;98353.66;5072664;28;19968;-85
2022/08/03 03:11:18;;;;;;;;;;;;;;;22.85;100.00;98367.59;5072558;28;20307;-85
2022/08/03 03:13:51;;;;;;;;;;;;;;;22.51;100.00;98366.91;5056598;28;20333;-85
2022/08/03 03:16:21;;;;;;;;;;;;;;;22.49;100.00;98372.28;5074151;28;19925;-85
2022/08/03 03:18:48;;;;;;;;;;;;;;;22.37;100.00;98362.22;5039468;28;20252;-85
2022/08/03 03:21:18;;;;;;;;;;;;;;;22.49;100.00;98372.28;5072349;28;19970;-86
2022/08/03 03:23:45;;;;;;;;;;;;;;;22.38;100.00;98372.34;5072632;28;19925;-85
2022/08/03 03:26:16;;;;;;;;;;;;;;;22.41;100.00;98382.69;5055840;28;19928;-85
2022/08/03 03:28:43;;;;;;;;;;;;;;;22.42;100.00;98378.53;5055815;28;19930;-86
2022/08/03 03:31:11;;;;;;;;;;;;;;;22.42;100.00;98367.13;5056012;28;19924;-85
2022/08/03 03:33:38;;;;;;;;;;;;;;;22.53;100.00;98372.84;5072525;28;19931;-86
2022/08/03 03:36:06;;;;;;;;;;;;;;;22.20;100.00;98367.19;5072578;28;19925;-85
2022/08/03 03:38:33;;;;;;;;;;;;;;;;;;5072375;28;20303;-86
2022/08/03 03:41:00;;;;;;;;;;;;;;;22.31;100.00;98378.53;5055899;28;19925;-86
2022/08/03 03:43:28;;;;;;;;;;;;;;;21.98;100.00;98378.56;5055711;28;19928;-85
2022/08/03 03:45:56;;;;;;;;;;;;;;;22.00;100.00;98373.13;5072305;28;19932;-85
2022/08/03 03:48:24;;;;;;;;;;;;;;;22.58;100.00;98363.50;5073632;28;20388;-85
2022/08/03 03:50:52;;;;;;;;;;;;;;;22.31;100.00;98358.63;5055553;28;19935;-85
2022/08/03 03:53:19;;;;;;;;;;;;;;;22.52;100.00;98357.03;5073315;28;20529;-85
2022/08/03 03:55:46;;;;;;;;;;;;;;;22.14;100.00;98355.03;5055583;28;20384;-86
2022/08/03 03:58:13;;;;;;;;;;;;;;;22.13;100.00;98372.63;5072826;28;20375;-86
2022/08/03 04:00:44;;;;;;;;;;;;;;;22.29;100.00;98374.66;5039243;28;20376;-85
2022/08/03 04:03:11;;;;;;;;;;;;;;;22.32;100.00;98374.41;5073333;28;20023;-86
2022/08/03 04:11:27;;;;;;;;;;;;;;;22.01;100.00;98386.06;5072022;28;20011;-85
2022/08/03 04:13:57;;;;;;;;;;;;;;;21.67;100.00;98378.78;5055329;28;20280;-85
2022/08/03 04:16:30;;;;;;;;;;;;;;;21.54;100.00;98389.84;5039004;28;20269;-85
2022/08/03 04:19:01;;;;;;;;;;;;;;;21.64;100.00;98376.19;5075291;28;20015;-85
2022/08/03 04:21:29;;;;;;;;;;;;;;;21.40;100.00;98373.81;5075676;28;20015;-85
2022/08/03 04:23:58;;;;;;;;;;;;;;;21.49;100.00;98370.72;5058789;28;20291;-85
2022/08/03 04:26:28;;;;;;;;;;;;;;;22.03;100.00;98374.94;5092463;28;19931;-86
2022/08/03 04:28:57;;;;;;;;;;;;;;;21.63;100.00;98372.53;5075414;28;19924;-85
2022/08/03 04:31:25;;;;;;;;;;;;;;;21.83;100.00;98372.34;5058790;28;19924;-85
2022/08/03 04:33:54;;;;;;;;;;;;;;;21.65;100.00;98367.13;5075410;28;19929;-85
2022/08/03 04:36:24;;;;;;;;;;;;;;;21.56;100.00;98387.28;5058860;28;19967;-85
2022/08/03 04:39:07;;;;;;;;;;;;;;;21.55;100.00;98385.72;5058570;28;19928;-85
2022/08/03 04:41:35;;;;;;;;;;;;;;;21.09;100.00;98380.44;5075412;28;20375;-85
2022/08/03 04:44:03;;;;;;;;;;;;;;;21.44;100.00;98397.06;5058972;28;19925;-86
2022/08/03 04:46:32;;;;;;;;;;;;;;;21.58;100.00;98387.53;5058666;28;19924;-85
2022/08/03 04:48:59;;;;;;;;;;;;;;;21.56;100.00;98389.34;5091879;28;20303;-86
2022/08/03 04:51:28;;;;;;;;;;;;;;;21.45;100.00;98392.94;5075365;28;20019;-86
2022/08/03 04:53:55;;;;;;;;;;;;;;;21.49;100.00;98390.63;5058304;28;20390;-86
2022/08/03 04:56:22;;;;;;;;;;;;;;;21.16;100.00;98388.44;5075048;28;19932;-85
2022/08/03 04:58:49;;;;;;;;;;;;;;;21.31;100.00;98382.56;5058282;28;19924;-85
2022/08/03 05:01:16;;;;;;;;;;;;;;;21.09;100.00;98405.22;5041732;28;19931;-85
2022/08/03 05:03:43;;;;;;;;;;;;;;;21.00;100.00;98394.06;5074777;28;20677;-85
2022/08/03 05:06:10;;;;;;;;;;;;;;;21.00;100.00;98394.84;5058049;28;20025;-85
2022/08/03 05:08:38;;;;;;;;;;;;;;;21.18;100.00;98374.53;5058109;28;19925;-86
2022/08/03 05:11:05;;;;;;;;;;;;;;;21.19;100.00;98380.97;5074603;28;19924;-82
2022/08/03 05:13:32;;;;;;;;;;;;;;;20.93;100.00;98386.00;5075829;28;19932;-85
2022/08/03 05:15:59;;;;;;;;;;;;;;;20.76;100.00;98399.34;5058078;28;19924;-85
2022/08/03 05:18:26;;;;;;;;;;;;;;;20.96;100.00;98399.22;5075667;28;19925;-87
2022/08/03 05:20:53;;;;;;;;;;;;;;;21.21;100.00;98409.66;5024770;28;20018;-89
2022/08/03 05:23:20;;;;;;;;;;;;;;;21.06;100.00;98411.91;5057653;28;19924;-86
2022/08/03 05:25:47;;;;;;;;;;;;;;;21.24;100.00;98405.78;5069619;28;19924;-86
2022/08/03 05:28:14;;;;;;;;;;;;;;;21.22;100.00;98402.66;5071483;28;20015;-88
2022/08/03 05:30:42;;;;;;;;;;;;;;;20.98;100.00;98417.28;5071102;28;19925;-83
2022/08/03 05:33:10;;;;;;;;;;;;;;;21.52;100.00;98412.34;5070704;28;20342;-81
2022/08/03 05:35:38;;;;;;;;;;;;;;;21.13;100.00;98417.09;5071371;28;19947;-81
2022/08/03 05:38:05;;;;;;;;;;;;;;;21.08;100.00;98415.03;5071081;28;19946;-81
2022/08/03 05:40:32;;;;;;;;;;;;;;;21.09;100.00;98413.72;5072602;28;19935;-81
2022/08/03 05:43:00;;;;;;;;;;;;;;;21.12;100.00;98416.34;5057701;28;20534;-80
2022/08/03 05:45:27;;;;;;;;;;;;;;;21.16;100.00;98427.44;5075396;28;20018;-81
2022/08/03 05:47:54;;;;;;;;;;;;;;;21.32;100.00;98415.38;5057683;28;20015;-82
2022/08/03 05:50:21;;;;;;;;;;;;;;;21.22;100.00;98419.72;5073735;28;19924;-81
2022/08/03 05:52:48;;;;;;;;;;;;;;;21.10;100.00;98415.28;5074100;28;19931;-81
2022/08/03 05:55:15;;;;;;;;;;;;;;;21.43;100.00;98413.34;5073821;28;20371;-80
2022/08/03 05:57:44;;;;;;;;;;;;;;;21.29;100.00;98405.81;5074945;28;19993;-81
2022/08/03 06:00:11;;;;;;;;;;;;;;;21.31;100.00;98411.00;5074781;28;19924;-81
2022/08/03 06:02:39;;;;;;;;;;;;;;;20.93;100.00;98418.00;5074758;28;20447;-81
2022/08/03 06:05:06;;;;;;;;;;;;;;;21.11;100.00;98425.38;5073580;28;19943;-80
2022/08/03 06:07:33;;;;;;;;;;;;;;;21.12;100.00;98426.91;5074890;28;19951;-81
2022/08/03 06:10:01;;;;;;;;;;;;;;;21.45;100.00;98421.34;5073447;28;19931;-80
2022/08/03 06:12:29;;;;;;;;;;;;;;;21.34;100.00;98432.69;5073269;28;19950;-81
2022/08/03 06:14:57;;;;;;;;;;;;;;;21.57;100.00;98433.53;5073378;28;19924;-81
2022/08/03 06:17:24;;;;;;;;;;;;;;;21.85;100.00;98435.19;5073925;28;19974;-81
2022/08/03 06:19:52;;;;;;;;;;;;;;;21.71;100.00;98427.63;5074672;28;19924;-82
2022/08/03 06:22:20;;;;;;;;;;;;;;;21.66;100.00;98436.91;5058307;28;20456;-82
2022/08/03 06:24:49;;;;;;;;;;;;;;;21.70;100.00;98437.44;5059406;28;19925;-82
2022/08/03 06:27:16;;;;;;;;;;;;;;;21.30;100.00;98429.31;5073200;28;20370;-82
2022/08/03 06:29:43;;;;;;;;;;;;;;;21.57;100.00;98427.84;5069926;28;19929;-81
2022/08/03 06:32:10;;;;;;;;;;;;;;;21.35;100.00;98439.91;5070559;28;19928;-83
2022/08/03 06:34:38;;;;;;;;;;;;;;;21.40;100.00;98436.34;5051460;28;19978;-81
2022/08/03 06:37:05;;;;;;;;;;;;;;;21.57;100.00;98433.53;5068404;28;19928;-82
2022/08/03 06:39:32;;;;;;;;;;;;;;;21.33;100.00;98439.66;5067930;28;19947;-82
2022/08/03 06:41:59;;;;;;;;;;;;;;;21.14;100.00;98455.59;5068007;28;20303;-82
2022/08/03 06:44:27;;;;;;;;;;;;;;;21.79;100.00;98442.91;5068445;28;20295;-82
2022/08/03 06:46:54;;;;;;;;;;;;;;;21.96;100.00;98446.53;5070217;28;19924;-82
2022/08/03 06:49:22;;;;;;;;;;;;;;;22.05;100.00;98454.84;5068501;28;19963;-82
2022/08/03 06:51:51;;;;;;;;;;;;;;;21.91;100.00;98447.34;5068955;28;19928;-81
2022/08/03 06:54:21;;;;;;;;;;;;;;;21.75;100.00;98447.31;5070780;28;19924;-80
2022/08/03 06:56:48;;;;;;;;;;;;;;;22.24;100.00;98450.19;5070035;28;19974;-80
2022/08/03 06:59:14;;;;;;;;;;;;;;;;;;5068364;28;19925;-80
2022/08/03 07:01:42;;;;;;;;;;;;;;;22.66;100.00;98435.72;5070450;28;20328;-80
2022/08/03 07:04:09;;;;;;;;;;;;;;;23.19;100.00;98440.22;5069728;28;19928;-80
2022/08/03 07:06:37;;;;;;;;;;;;;;;24.05;100.00;98430.97;5070183;28;20022;-81
2022/08/03 07:09:05;;;;;;;;;;;;;;;24.17;100.00;98425.97;5072502;28;19924;-81
2022/08/03 07:11:32;;;;;;;;;;;;;;;24.54;100.00;98420.44;5072736;28;19974;-81
2022/08/03 07:13:59;;;;;;;;;;;;;;;24.76;100.00;98408.84;5039020;28;19974;-80
2022/08/03 07:16:26;;;;;;;;;;;;;;;25.17;100.00;98409.44;5073440;28;19924;-81
2022/08/03 07:18:53;;;;;;;;;;;;;;;26.01;100.00;98402.03;5073749;28;20430;-80
2022/08/03 07:21:20;;;;;;;;;;;;;;;26.50;100.00;98399.66;5072281;28;20302;-79
2022/08/03 07:23:47;;;;;;;;;;;;;;;26.36;100.00;98392.34;5073538;28;19925;-81
2022/08/03 07:26:15;;;;;;;;;;;;;;;25.82;100.00;98406.22;5073368;28;20286;-79
2022/08/03 07:28:45;;;;;;;;;;;;;;;25.80;100.00;98423.94;5073286;28;19925;-80
2022/08/03 07:31:12;;;;;;;;;;;;;;;24.85;100.00;98427.72;5055371;28;19928;-80
2022/08/03 07:33:39;;;;;;;;;;;;;;;24.98;100.00;98425.75;5072226;28;19966;-83
2022/08/03 07:36:17;;;;;;;;;;;;;;;24.79;100.00;98442.06;5073759;28;19932;-83
2022/08/03 07:39:01;;;;;;;;;;;;;;;24.69;100.00;98449.41;5072368;28;19932;-83
2022/08/03 07:41:42;;;;;;;;;;;;;;;25.31;100.00;98442.50;5069646;28;19936;-89
2022/08/03 07:44:36;;;;;;;;;;;;;;;26.34;100.00;98447.31;5052440;28;19936;-88
2022/08/03 07:47:03;;;;;;;;;;;;;;;26.41;100.00;98431.59;5052407;28;19978;-88
2022/08/03 07:49:30;;;;;;;;;;;;;;;26.25;100.00;98438.34;5069402;28;20027;-86
2022/08/03 07:54:44;;;;;;;;;;;;;;;26.37;100.00;98446.22;5072446;28;19970;-87
2022/08/03 07:57:11;;;;;;;;;;;;;;;26.00;100.00;98445.53;5072994;28;20368;-87
2022/08/03 07:59:38;;;;;;;;;;;;;;;26.50;100.00;98451.22;5072555;28;19925;-88
2022/08/03 08:02:08;;;;;;;;;;;;;;;25.94;100.00;98453.38;5073007;28;20398;-86
2022/08/03 08:04:36;;;;;;;;;;;;;;;26.28;100.00;98448.72;5074587;28;19931;-90
2022/08/03 08:07:03;;;;;;;;;;;;;;;27.34;100.00;98439.81;5074643;28;19925;-84
2022/08/03 08:09:30;;;;;;;;;;;;;;;27.35;100.00;98452.81;5059158;28;19930;-84
2022/08/03 08:11:58;;;;;;;;;;;;;;;26.95;100.00;98465.56;5075687;28;19928;-83
2022/08/03 08:14:25;;;;;;;;;;;;;;;26.86;100.00;98468.84;5075816;28;19928;-87
2022/08/03 08:16:52;;;;;;;;;;;;;;;27.56;100.00;98473.78;5092704;28;19974;-88
2022/08/03 08:19:20;;;;;;;;;;;;;;;27.58;100.00;98453.91;5042762;28;19974;-85
2022/08/03 08:21:47;;;;;;;;;;;;;;;27.07;100.00;98459.06;5093096;28;19932;-82
2022/08/03 08:24:14;;;;;;;;;;;;;;;27.62;100.00;98460.06;5073656;28;20390;-86
2022/08/03 08:26:41;;;;;;;;;;;;;;;27.74;100.00;98461.38;5072120;28;20395;-82
2022/08/03 08:29:09;;;;;;;;;;;;;;;26.80;100.00;98474.69;5072276;28;19924;-81
2022/08/03 08:31:37;;;;;;;;;;;;;;;26.02;100.00;98468.66;5075626;28;20323;-85
2022/08/03 08:34:06;;;;;;;;;;;;;;;25.56;100.00;98466.91;5077144;28;20457;-85
2022/08/03 08:36:33;;;;;;;;;;;;;;;25.55;100.00;98467.47;5058724;28;19925;-86
2022/08/03 08:39:01;;;;;;;;;;;;;;;25.63;100.00;98472.03;5076151;28;20095;-85
2022/08/03 08:41:28;;;;;;;;;;;;;;;25.57;100.00;98477.03;5058810;28;19924;-85
2022/08/03 08:43:55;;;;;;;;;;;;;;;25.94;100.00;98477.06;5076423;28;19932;-84
2022/08/03 08:46:25;;;;;;;;;;;;;;;25.52;100.00;98480.72;5075605;28;19978;-83
2022/08/03 08:48:53;;;;;;;;;;;;;;;25.49;100.00;98469.63;5075809;28;19924;-87
2022/08/03 08:51:21;;;;;;;;;;;;;;;24.88;100.00;98481.72;5076043;28;20280;-90
2022/08/03 08:53:50;;;;;;;;;;;;;;;25.34;100.00;98475.75;5058572;28;19924;-88
2022/08/03 08:56:19;;;;;;;;;;;;;;;24.70;100.00;98488.13;5058353;28;19924;-87
2022/08/03 08:58:48;;;;;;;;;;;;;;;24.04;100.00;98482.88;5058723;28;19924;-84
2022/08/03 09:01:17;;;;;;;;;;;;;;;23.67;100.00;98493.97;5058567;28;19929;-84
2022/08/03 09:03:44;;;;;;;;;;;;;;;24.61;100.00;98491.28;5041738;28;19977;-84
2022/08/03 09:06:11;;;;;;;;;;;;;;;25.06;100.00;98481.00;5074558;28;19928;-89
2022/08/03 09:08:38;;;;;;;;;;;;;;;25.07;100.00;98484.63;5074563;28;20303;-87
2022/08/03 09:11:06;;;;;;;;;;;;;;;25.00;100.00;98491.72;5041633;28;20015;-85
2022/08/03 09:13:33;;;;;;;;;;;;;;;25.66;100.00;98490.97;5074918;28;19924;-84
2022/08/03 09:16:14;;;;;;;;;;;;;;;25.71;100.00;98486.47;5058339;28;19924;-85
2022/08/03 09:18:43;;;;;;;;;;;;;;;25.74;100.00;98491.91;5074962;28;20425;-84
2022/08/03 09:21:16;;;;;;;;;;;;;;;24.97;100.00;98492.78;5057919;28;19924;-85
2022/08/03 09:24:00;;;;;;;;;;;;;;;25.06;100.00;98506.72;5060220;28;19974;-84
2022/08/03 09:26:29;;;;;;;;;;;;;;;25.49;100.00;98490.41;5058587;28;19990;-83
2022/08/03 09:29:06;;;;;;;;;;;;;;;26.49;100.00;98499.13;5075719;28;19924;-84
2022/08/03 09:31:40;;;;;;;;;;;;;;;26.15;100.00;98495.25;5074654;28;20360;-84
2022/08/03 09:34:09;;;;;;;;;;;;;;;26.71;100.00;98480.06;5075588;28;20364;-85
2022/08/03 09:36:44;;;;;;;;;;;;;;;26.88;100.00;98477.69;5057789;28;19946;-85
2022/08/03 09:39:12;;;;;;;;;;;;;;;27.02;100.00;98485.75;5057837;28;19924;-86
2022/08/03 09:41:41;;;;;;;;;;;;;;;26.59;100.00;98481.53;5074340;28;19924;-88
2022/08/03 09:44:13;;;;;;;;;;;;;;;26.85;100.00;98490.25;5074153;28;20433;-86
2022/08/03 09:46:50;;;;;;;;;;;;;;;27.00;100.00;98496.22;5075282;28;19925;-87
2022/08/03 09:49:17;;;;;;;;;;;;;;;26.94;100.00;98489.81;5057993;28;19939;-85
2022/08/03 09:51:45;;;;;;;;;;;;;;;26.91;100.00;98493.78;5074337;28;19928;-83
2022/08/03 09:54:12;;;;;;;;;;;;;;;26.91;100.00;98491.69;5075078;28;20304;-83
2022/08/03 09:56:44;;;;;;;;;;;;;;;26.82;100.00;98492.13;5074140;28;19924;-83
2022/08/03 09:59:21;;;;;;;;;;;;;;;26.29;100.00;98508.31;5073876;28;20265;-82
2022/08/03 10:01:48;;;;;;;;;;;;;;;26.73;100.00;98500.34;5075292;28;19931;-83
2022/08/03 10:04:16;;;;;;;;;;;;;;;26.34;100.00;98504.59;5074008;28;19931;-83
2022/08/03 10:06:44;;;;;;;;;;;;;;;25.90;100.00;98493.00;5073625;28;19928;-85
2022/08/03 10:09:15;;;;;;;;;;;;;;;26.51;100.00;98503.56;5073496;28;20019;-86
2022/08/03 10:11:42;;;;;;;;;;;;;;;26.46;100.00;98510.94;5056537;28;19924;-87
2022/08/03 10:14:17;;;;;;;;;;;;;;;25.25;100.00;98504.69;5074028;28;19931;-87
2022/08/03 10:16:45;;;;;;;;;;;;;;;25.05;100.00;98493.75;5074031;28;19932;-84
2022/08/03 10:19:14;;;;;;;;;;;;;;;24.16;100.00;98501.47;5073818;28;19932;-86
2022/08/03 10:21:53;;;;;;;;;;;;;;;25.19;100.00;98515.41;5056613;28;20354;-84
2022/08/03 10:24:25;;;;;;;;;;;;;;;25.25;100.00;98501.81;5073067;28;19948;-85
2022/08/03 10:26:52;;;;;;;;;;;;;;;24.99;100.00;98527.34;5057512;28;19932;-86
2022/08/03 10:29:23;;;;;;;;;;;;;;;25.59;100.00;98505.88;5073201;28;20462;-86
2022/08/03 10:31:53;;;;;;;;;;;;;;;25.66;100.00;98508.13;5072912;28;20295;-86
2022/08/03 10:34:25;;;;;;;;;;;;;;;25.84;100.00;98509.47;5056634;28;19925;-87
2022/08/03 10:36:55;;;;;;;;;;;;;;;25.57;100.00;98517.09;5055840;28;19932;-87
2022/08/03 10:39:24;;;;;;;;;;;;;;;24.66;100.00;98525.53;5072929;28;19924;-87
2022/08/03 10:41:53;;;;;;;;;;;;;;;24.89;100.00;98528.19;5056256;28;20292;-86
2022/08/03 10:44:23;;;;;;;;;;;;;;;24.76;100.00;98523.88;5056653;28;20019;-86
2022/08/03 10:46:50;;;;;;;;;;;;;;;24.63;100.00;98508.66;5073048;28;19924;-87
2022/08/03 10:49:18;;;;;;;;;;;;;;;24.26;100.00;98536.97;5056336;28;19925;-89
2022/08/03 10:51:46;;;;;;;;;;;;;;;24.68;100.00;98534.34;5072803;28;20384;-88
2022/08/03 10:54:33;;;;;;;;;;;;;;;24.86;100.00;98532.09;5072878;28;19924;-86
2022/08/03 10:59:46;;;;;;;;;;;;;;;24.31;100.00;98536.16;5074077;28;19928;-87
2022/08/03 11:02:13;;;;;;;;;;;;;;;24.31;100.00;98539.03;5056149;28;19928;-86
2022/08/03 11:04:41;;;;;;;;;;;;;;;24.48;100.00;98536.81;5039470;28;20381;-88
2022/08/03 11:07:15;;;;;;;;;;;;;;;24.78;100.00;98537.63;5072732;28;20091;-86
2022/08/03 11:09:44;;;;;;;;;;;;;;;24.44;100.00;98536.31;5055960;28;19924;-87
2022/08/03 11:12:24;;;;;;;;;;;;;;;24.66;100.00;98541.88;5040116;28;19994;-86
2022/08/03 11:14:52;;;;;;;;;;;;;;;25.24;100.00;98531.75;5072769;28;20003;-86
2022/08/03 11:17:19;;;;;;;;;;;;;;;25.87;100.00;98532.03;5072582;28;19925;-88
2022/08/03 11:19:50;;;;;;;;;;;;;;;26.31;100.00;98519.22;5072550;28;19963;-88
2022/08/03 11:22:19;;;;;;;;;;;;;;;26.29;100.00;98519.75;5055885;28;20013;-86
2022/08/03 11:24:49;;;;;;;;;;;;;;;26.56;100.00;98514.16;5038911;28;19982;-87
2022/08/03 11:27:27;;;;;;;;;;;;;;;26.27;100.00;98528.13;5057809;28;19929;-90
2022/08/03 11:30:03;;;;;;;;;;;;;;;26.45;100.00;98515.88;5091548;28;20019;-90
2022/08/03 11:32:37;;;;;;;;;;;;;;;26.86;100.00;98512.63;5076416;28;20019;-91
2022/08/03 11:35:08;;;;;;;;;;;;;;;26.04;100.00;98520.41;5076562;28;19930;-88
2022/08/03 11:37:55;;;;;;;;;;;;;;;25.69;100.00;98518.50;5093272;28;19932;-87
2022/08/03 11:40:41;;;;;;;;;;;;;;;25.96;100.00;98531.66;5076203;28;20009;-88
2022/08/03 11:43:21;;;;;;;;;;;;;;;25.89;100.00;98515.13;5059970;28;19925;-88
2022/08/03 11:45:57;;;;;;;;;;;;;;;26.75;100.00;98523.50;5042898;28;19924;-86
2022/08/03 11:48:26;;;;;;;;;;;;;;;26.45;100.00;98517.97;5059649;28;19932;-88
2022/08/03 11:50:53;;;;;;;;;;;;;;;26.67;100.00;98502.53;5076213;28;19963;-87
2022/08/03 11:53:20;;;;;;;;;;;;;;;26.71;100.00;98505.84;5059373;28;19932;-90
2022/08/03 11:55:48;;;;;;;;;;;;;;;26.90;100.00;98513.06;5076237;28;19931;-86
2022/08/03 11:58:19;;;;;;;;;;;;;;;26.35;100.00;98494.69;5076139;28;19925;-88
2022/08/03 12:00:46;;;;;;;;;;;;;;;26.19;100.00;98530.06;5075173;28;20394;-87
2022/08/03 12:03:15;;;;;;;;;;;;;;;26.10;100.00;98530.47;5101754;28;19964;-88
2022/08/03 12:05:42;;;;;;;;;;;;;;;26.97;100.00;98523.13;5087003;28;19924;-87
2022/08/03 12:08:10;;;;;;;;;;;;;;;27.09;100.00;98521.59;5053121;28;19925;-86
2022/08/03 12:10:39;;;;;;;;;;;;;;;27.44;100.00;98521.22;5070581;28;20321;-88
2022/08/03 12:13:07;;;;;;;;;;;;;;;27.44;100.00;98535.56;5053027;28;19929;-86
2022/08/03 12:15:35;;;;;;;;;;;;;;;27.18;100.00;98529.78;5070063;28;19928;-85
2022/08/03 12:18:03;;;;;;;;;;;;;;;26.77;100.00;98526.59;5056013;28;19982;-87
2022/08/03 12:20:31;;;;;;;;;;;;;;;26.21;100.00;98521.72;5090114;28;19931;-85
2022/08/03 12:23:03;;;;;;;;;;;;;;;26.16;100.00;98531.16;5076314;28;19928;-87
2022/08/03 12:25:33;;;;;;;;;;;;;;;25.73;100.00;98535.38;5077002;28;19924;-85
2022/08/03 12:28:11;;;;;;;;;;;;;;;25.65;100.00;98546.63;5076146;28;19931;-87
2022/08/03 12:30:38;;;;;;;;;;;;;;;25.82;100.00;98530.06;5095137;28;19924;-88
2022/08/03 12:33:12;;;;;;;;;;;;;;;26.14;100.00;98536.66;5050582;28;20367;-89
2022/08/03 12:35:39;;;;;;;;;;;;;;;25.96;100.00;98543.09;5079087;28;20355;-85
2022/08/03 12:38:06;;;;;;;;;;;;;;;25.82;100.00;98537.84;5097391;28;19977;-83
2022/08/03 12:40:33;;;;;;;;;;;;;;;24.97;100.00;98541.38;5096511;28;20019;-82
2022/08/03 12:43:09;;;;;;;;;;;;;;;24.57;100.00;98548.69;5079123;28;20413;-80
2022/08/03 12:45:36;;;;;;;;;;;;;;;24.80;100.00;98552.16;5097058;28;19928;-81
2022/08/03 12:48:06;;;;;;;;;;;;;;;24.90;100.00;98559.06;5097146;28;19928;-86
2022/08/03 12:50:34;;;;;;;;;;;;;;;25.51;100.00;98565.00;5095709;28;20023;-85
2022/08/03 12:53:04;;;;;;;;;;;;;;;26.21;100.00;98556.09;5078418;28;19924;-88
2022/08/03 12:55:35;;;;;;;;;;;;;;;26.44;100.00;98568.78;5095348;28;20286;-85
2022/08/03 12:58:06;;;;;;;;;;;;;;;26.04;100.00;98566.97;5097040;28;20374;-86
2022/08/03 13:00:33;;;;;;;;;;;;;;;25.79;100.00;98565.47;5078226;28;19928;-85